Time;durP1;ratioP1;P1;durP2;ratioP2;P2;SDS_P1;SDS_P2;PMS_P1;PMS_P2;Temp;Humidity;BMP_temperature;BMP_pressure;BME280_temperature;BME280_humidity;BME280_pressure;Samples;Min_cycle;Max_cycle;Signal;HPM_P1;HPM_P2
2022/08/25 00:00:52;;;;;;;17.53;15.63;;;16.70;99.90;;;;;;8350501;28;20216;-70
2022/08/25 00:04:52;;;;;;;16.80;14.83;;;16.70;99.90;;;;;;8345006;28;20233;-70
2022/08/25 00:08:58;;;;;;;16.33;14.57;;;16.70;99.90;;;;;;8343569;28;20656;-70
2022/08/25 00:12:59;;;;;;;17.33;15.43;;;16.70;99.90;;;;;;8348174;28;20207;-70
2022/08/25 00:17:00;;;;;;;16.67;14.90;;;16.80;99.90;;;;;;8347006;28;20288;-70
2022/08/25 00:21:02;;;;;;;17.27;14.37;;;16.70;99.90;;;;;;8347419;28;20262;-70
2022/08/25 00:25:03;;;;;;;15.07;13.47;;;16.70;99.90;;;;;;8347659;28;20205;-70
2022/08/25 00:29:04;;;;;;;16.67;14.87;;;16.60;99.90;;;;;;8348178;28;20189;-70
2022/08/25 00:33:06;;;;;;;16.43;14.63;;;16.70;99.90;;;;;;8346788;28;20180;-70
2022/08/25 00:37:08;;;;;;;15.10;12.93;;;16.70;99.90;;;;;;8347267;28;20289;-70
2022/08/25 00:41:11;;;;;;;14.87;13.23;;;16.70;99.90;;;;;;8347564;28;20177;-70
2022/08/25 00:45:11;;;;;;;18.10;14.00;;;16.60;99.90;;;;;;8348611;28;20300;-70
2022/08/25 00:49:22;;;;;;;15.33;13.73;;;16.70;99.90;;;;;;8345448;28;20189;-70
2022/08/25 00:53:24;;;;;;;15.80;14.13;;;16.80;99.90;;;;;;8346469;28;20238;-70
2022/08/25 00:57:45;;;;;;;17.10;14.57;;;16.80;99.90;;;;;;8345056;28;20173;-70
2022/08/25 01:01:48;;;;;;;15.33;13.73;;;16.90;99.90;;;;;;8343947;28;20177;-70
2022/08/25 01:05:50;;;;;;;15.27;13.60;;;17.00;99.90;;;;;;8345805;28;20205;-70
2022/08/25 01:09:52;;;;;;;17.73;14.90;;;17.00;99.90;;;;;;8361601;28;20185;-70
2022/08/25 01:13:55;;;;;;;16.03;14.27;;;17.10;99.90;;;;;;8345870;28;20526;-71
2022/08/25 01:17:57;;;;;;;15.50;13.90;;;17.10;99.90;;;;;;8344901;28;20197;-70
2022/08/25 01:21:58;;;;;;;16.83;15.13;;;17.20;99.90;;;;;;8344259;28;20184;-69
2022/08/25 01:26:21;;;;;;;15.67;14.10;;;17.10;99.90;;;;;;8343393;28;20224;-70
2022/08/25 01:30:23;;;;;;;16.23;14.63;;;17.10;99.90;;;;;;8342109;28;20192;-70
2022/08/25 01:34:28;;;;;;;17.37;15.33;;;17.10;99.90;;;;;;8345155;28;20193;-70
2022/08/25 01:38:28;;;;;;;17.00;14.63;;;17.10;99.90;;;;;;8348177;28;20574;-71
2022/08/25 01:43:01;;;;;;;17.93;16.10;;;17.10;99.90;;;;;;8346953;28;20235;-71
2022/08/25 01:47:03;;;;;;;15.93;14.33;;;17.10;99.90;;;;;;8359668;28;20251;-70
2022/08/25 01:51:04;;;;;;;17.60;15.53;;;17.00;99.90;;;;;;8345546;28;20187;-70
2022/08/25 01:55:05;;;;;;;16.00;14.30;;;17.00;99.90;;;;;;8342623;28;20280;-71
2022/08/25 01:59:06;;;;;;;15.17;13.57;;;16.90;99.90;;;;;;8343476;28;20271;-70
2022/08/25 02:03:07;;;;;;;21.23;18.40;;;16.90;99.90;;;;;;8341498;28;20415;-70
2022/08/25 02:07:08;;;;;;;18.77;16.83;;;17.00;99.90;;;;;;8344650;28;20185;-70
2022/08/25 02:11:11;;;;;;;18.33;16.43;;;17.00;99.90;;;;;;8373427;28;20537;-70
2022/08/25 02:15:13;;;;;;;23.57;21.07;;;17.00;99.90;;;;;;8344628;28;20182;-70
2022/08/25 02:19:14;;;;;;;17.67;15.80;;;17.00;99.90;;;;;;8343190;28;20201;-70
2022/08/25 02:23:15;;;;;;;15.03;13.47;;;16.90;99.90;;;;;;8345247;28;20208;-70
2022/08/25 02:27:16;;;;;;;14.63;13.13;;;16.90;99.90;;;;;;8343489;28;20173;-70
2022/08/25 02:31:21;;;;;;;27.40;22.67;;;16.90;99.90;;;;;;8351271;28;20189;-70
2022/08/25 02:35:22;;;;;;;33.80;17.73;;;16.90;99.90;;;;;;8358576;28;20280;-70
2022/08/25 02:39:23;;;;;;;30.17;26.13;;;16.90;99.90;;;;;;8349956;28;20193;-71
2022/08/25 02:43:25;;;;;;;24.63;20.60;;;16.90;99.90;;;;;;8352789;28;20213;-71
2022/08/25 02:47:26;;;;;;;20.30;18.10;;;17.00;99.90;;;;;;8352149;28;20270;-70
2022/08/25 02:51:28;;;;;;;18.53;16.63;;;17.00;99.90;;;;;;8347707;28;20181;-70
2022/08/25 02:55:29;;;;;;;16.80;15.10;;;16.90;99.90;;;;;;8351212;28;20197;-70
2022/08/25 02:59:30;;;;;;;16.13;14.23;;;16.80;99.90;;;;;;8355597;28;20189;-70
2022/08/25 03:03:31;;;;;;;16.67;14.87;;;16.80;99.90;;;;;;8348303;28;20206;-71
2022/08/25 03:07:34;;;;;;;16.70;14.47;;;16.80;99.90;;;;;;8348451;28;20179;-70
2022/08/25 03:11:37;;;;;;;17.87;15.97;;;16.80;99.90;;;;;;8351458;28;20233;-70
2022/08/25 03:15:38;;;;;;;18.93;16.17;;;16.90;99.90;;;;;;8346668;28;20178;-70
2022/08/25 03:19:39;;;;;;;17.20;15.30;;;16.90;99.90;;;;;;8349891;28;20197;-71
2022/08/25 03:23:41;;;;;;;20.67;17.83;;;16.90;99.90;;;;;;8344880;28;20213;-71
2022/08/25 03:27:41;;;;;;;18.20;15.70;;;16.80;99.90;;;;;;8347539;28;20181;-70
2022/08/25 03:31:43;;;;;;;17.50;15.57;;;16.80;99.90;;;;;;8344767;28;20177;-70
2022/08/25 03:35:44;;;;;;;15.30;13.77;;;16.70;99.90;;;;;;8347065;28;20196;-70
2022/08/25 03:39:45;;;;;;;14.47;13.07;;;16.60;99.90;;;;;;8354501;28;20214;-70
2022/08/25 03:43:46;;;;;;;13.23;12.00;;;16.50;99.90;;;;;;8347333;28;20206;-70
2022/08/25 03:47:48;;;;;;;11.77;10.67;;;16.40;99.90;;;;;;8350995;28;20199;-70
2022/08/25 03:51:51;;;;;;;12.10;10.90;;;16.40;99.90;;;;;;8346138;28;20252;-70
2022/08/25 03:55:52;;;;;;;12.27;10.73;;;16.30;99.90;;;;;;8342512;28;20185;-71
2022/08/25 03:59:53;;;;;;;12.53;11.33;;;16.30;99.90;;;;;;8347691;28;20247;-71
2022/08/25 04:03:53;;;;;;;14.90;13.33;;;16.20;99.90;;;;;;8344660;28;20259;-70
2022/08/25 04:07:54;;;;;;;13.47;12.10;;;16.20;99.90;;;;;;8344881;28;20189;-70
2022/08/25 04:11:55;;;;;;;12.77;11.57;;;16.20;99.90;;;;;;8338059;28;20205;-71
2022/08/25 04:15:56;;;;;;;12.87;11.57;;;16.20;99.90;;;;;;8348807;28;20182;-71
2022/08/25 04:19:57;;;;;;;12.53;11.23;;;16.20;99.90;;;;;;8346242;28;20251;-71
2022/08/25 04:23:57;;;;;;;12.97;11.77;;;16.30;99.90;;;;;;8350057;28;20209;-71
2022/08/25 04:27:58;;;;;;;13.47;12.07;;;16.40;99.90;;;;;;8351318;28;20178;-71
2022/08/25 04:31:59;;;;;;;12.53;11.37;;;16.50;99.90;;;;;;8344640;28;20223;-71
2022/08/25 04:36:00;;;;;;;12.37;11.17;;;16.50;99.90;;;;;;8350962;28;20215;-71
2022/08/25 04:40:01;;;;;;;12.03;10.83;;;16.50;99.90;;;;;;8344670;28;20182;-70
2022/08/25 04:44:03;;;;;;;19.13;15.77;;;16.50;99.90;;;;;;8378030;28;20210;-73
2022/08/25 04:48:04;;;;;;;17.87;15.97;;;16.60;99.90;;;;;;8352336;28;20186;-71
2022/08/25 04:52:05;;;;;;;15.00;13.40;;;16.60;99.90;;;;;;8365129;28;20230;-71
2022/08/25 04:56:09;;;;;;;17.10;14.17;;;16.70;99.90;;;;;;8347288;28;20204;-71
2022/08/25 05:00:10;;;;;;;13.53;12.13;;;16.90;99.90;;;;;;8347452;28;20194;-71
2022/08/25 05:04:13;;;;;;;13.73;12.33;;;17.10;99.90;;;;;;8351183;28;20201;-71
2022/08/25 05:08:14;;;;;;;19.17;16.37;;;17.30;99.90;;;;;;8358779;28;20174;-71
2022/08/25 05:12:15;;;;;;;20.83;16.63;;;17.50;99.90;;;;;;8348797;28;20206;-71
2022/08/25 05:16:17;;;;;;;16.27;14.63;;;17.70;99.90;;;;;;8347060;28;20229;-71
2022/08/25 05:20:18;;;;;;;25.07;21.83;;;17.80;99.90;;;;;;8346372;28;20186;-71
2022/08/25 05:24:19;;;;;;;19.57;17.57;;;17.80;99.90;;;;;;8349015;28;20206;-71
2022/08/25 05:28:21;;;;;;;16.63;15.00;;;17.90;99.90;;;;;;8346190;28;20207;-71
2022/08/25 05:32:22;;;;;;;23.33;20.93;;;18.10;99.90;;;;;;8346969;28;20186;-71
2022/08/25 05:36:24;;;;;;;22.20;19.83;;;18.20;99.90;;;;;;8351952;28;20182;-71
2022/08/25 05:40:25;;;;;;;18.30;16.30;;;18.30;99.90;;;;;;8380784;28;20400;-71
2022/08/25 05:44:26;;;;;;;18.63;16.80;;;18.40;99.90;;;;;;8346873;28;20273;-71
2022/08/25 05:48:27;;;;;;;18.27;16.40;;;18.60;99.90;;;;;;8348362;28;20326;-71
2022/08/25 05:52:27;;;;;;;16.93;15.23;;;18.90;99.90;;;;;;8346995;28;20236;-71
2022/08/25 05:56:28;;;;;;;21.83;19.37;;;19.10;99.90;;;;;;8345224;28;20178;-71
2022/08/25 06:00:29;;;;;;;27.87;22.13;;;19.10;99.90;;;;;;8345173;28;20194;-71
2022/08/25 06:04:31;;;;;;;21.80;18.50;;;19.20;99.90;;;;;;8345630;28;20210;-71
2022/08/25 06:08:32;;;;;;;26.00;21.33;;;19.30;99.90;;;;;;8352718;28;20316;-71
2022/08/25 06:12:34;;;;;;;31.83;24.23;;;19.40;99.90;;;;;;8350831;28;20215;-71
2022/08/25 06:16:37;;;;;;;30.10;23.37;;;19.60;99.90;;;;;;8345681;28;20201;-72
2022/08/25 06:20:38;;;;;;;25.43;19.27;;;19.70;99.90;;;;;;8353748;28;20181;-71
2022/08/25 06:24:39;;;;;;;33.23;22.90;;;19.90;99.90;;;;;;8350432;28;20288;-72
2022/08/25 06:28:40;;;;;;;22.60;17.20;;;20.20;99.90;;;;;;8353183;28;20173;-71
2022/08/25 06:32:42;;;;;;;31.20;23.00;;;20.40;99.90;;;;;;8347318;28;20350;-70
2022/08/25 06:36:43;;;;;;;24.43;21.77;;;20.70;99.90;;;;;;8351666;28;20217;-71
2022/08/25 06:40:47;;;;;;;23.23;19.00;;;20.80;99.90;;;;;;8349493;28;20182;-72
2022/08/25 06:44:47;;;;;;;25.73;19.67;;;20.80;99.90;;;;;;8350039;28;20202;-71
2022/08/25 06:48:49;;;;;;;19.93;16.90;;;20.90;99.90;;;;;;8356998;28;20214;-71
2022/08/25 06:52:50;;;;;;;20.40;16.90;;;21.00;99.90;;;;;;8352153;28;20192;-72
2022/08/25 06:56:51;;;;;;;18.27;15.83;;;21.00;99.90;;;;;;8360738;28;20186;-71
2022/08/25 07:00:52;;;;;;;17.00;15.23;;;21.20;99.90;;;;;;8347567;28;20226;-71
2022/08/25 07:04:53;;;;;;;15.57;12.60;;;21.30;99.90;;;;;;8357472;28;20214;-71
2022/08/25 07:08:54;;;;;;;13.50;12.10;;;21.50;99.90;;;;;;8369341;28;20188;-71
2022/08/25 07:12:55;;;;;;;18.10;14.57;;;21.60;99.90;;;;;;8362056;28;20654;-71
2022/08/25 07:16:56;;;;;;;10.70;9.70;;;21.70;99.90;;;;;;8356958;28;20205;-71
2022/08/25 07:20:57;;;;;;;11.03;9.93;;;21.80;99.90;;;;;;8361393;28;20186;-71
2022/08/25 07:24:58;;;;;;;13.97;12.50;;;22.10;99.90;;;;;;8352525;28;20202;-71
2022/08/25 07:29:00;;;;;;;18.80;16.47;;;22.30;99.90;;;;;;8355007;28;20209;-71
2022/08/25 07:33:00;;;;;;;19.60;16.07;;;22.40;99.90;;;;;;8348402;28;20205;-71
2022/08/25 07:37:07;;;;;;;17.23;15.40;;;22.40;99.90;;;;;;8348260;28;20196;-70
2022/08/25 07:41:08;;;;;;;15.50;12.87;;;22.30;99.90;;;;;;8349264;28;20182;-71
2022/08/25 07:45:10;;;;;;;19.67;17.20;;;22.10;99.90;;;;;;8349473;28;20638;-71
2022/08/25 07:49:11;;;;;;;20.97;18.43;;;22.00;99.90;;;;;;8364712;28;20181;-70
2022/08/25 07:53:14;;;;;;;23.73;19.73;;;21.90;99.90;;;;;;8347872;28;20201;-71
2022/08/25 07:57:15;;;;;;;18.47;15.87;;;22.10;99.90;;;;;;8344780;28;20197;-70
2022/08/25 08:01:21;;;;;;;16.40;14.30;;;22.10;99.90;;;;;;8342517;28;20193;-71
2022/08/25 08:05:23;;;;;;;26.40;20.97;;;22.30;99.90;;;;;;8355777;28;20233;-70
2022/08/25 08:09:23;;;;;;;25.47;22.70;;;22.30;99.90;;;;;;8346829;28;20192;-70
2022/08/25 08:13:25;;;;;;;25.47;21.67;;;22.20;99.90;;;;;;8344902;28;20214;-70
2022/08/25 08:17:26;;;;;;;25.20;19.33;;;21.90;99.90;;;;;;8346576;28;20233;-70
2022/08/25 08:21:31;;;;;;;24.07;20.53;;;22.00;99.90;;;;;;8343086;28;20547;-70
2022/08/25 08:25:32;;;;;;;27.53;23.10;;;22.10;99.90;;;;;;8344373;28;20292;-70
2022/08/25 08:29:34;;;;;;;29.53;25.13;;;21.90;99.90;;;;;;8345689;28;20186;-70
2022/08/25 08:33:35;;;;;;;34.60;26.43;;;21.80;99.90;;;;;;8337906;28;20189;-70
2022/08/25 08:37:40;;;;;;;25.97;23.17;;;21.50;99.90;;;;;;8347011;28;20185;-72
2022/08/25 08:42:17;;;;;;;21.37;17.97;;;21.50;99.90;;;;;;8343602;28;20205;-70
2022/08/25 08:46:21;;;;;;;23.27;18.63;;;21.70;99.90;;;;;;8346129;28;20293;-71
2022/08/25 08:50:21;;;;;;;32.90;23.37;;;22.00;99.90;;;;;;8345712;28;20182;-70
2022/08/25 08:54:24;;;;;;;24.33;19.87;;;22.30;99.90;;;;;;8349042;28;20196;-72
2022/08/25 08:58:43;;;;;;;26.07;21.00;;;22.40;99.90;;;;;;8348812;28;20185;-71
2022/08/25 09:03:08;;;;;;;26.83;20.87;;;22.50;99.90;;;;;;8344824;28;20193;-71
2022/08/25 09:07:17;;;;;;;29.90;19.13;;;22.70;99.90;;;;;;8346317;28;20296;-70
2022/08/25 09:11:30;;;;;;;24.83;17.37;;;22.70;99.90;;;;;;8344063;28;20194;-71
2022/08/25 09:20:27;;;;;;;24.83;20.73;;;23.10;99.90;;;;;;8345893;28;20240;-71
2022/08/25 09:24:31;;;;;;;28.20;20.43;;;23.10;99.90;;;;;;8347038;28;20494;-70
2022/08/25 09:29:01;;;;;;;25.57;19.37;;;22.70;99.90;;;;;;8345714;28;20174;-70
2022/08/25 09:33:03;;;;;;;23.50;18.10;;;22.50;99.90;;;;;;8346907;28;20214;-71
2022/08/25 09:37:04;;;;;;;24.40;20.10;;;22.50;99.90;;;;;;8346422;28;20216;-71
2022/08/25 09:41:06;;;;;;;22.33;18.10;;;22.70;99.90;;;;;;8349498;28;20252;-71
2022/08/25 09:45:12;;;;;;;20.90;18.00;;;22.80;99.90;;;;;;8345152;28;20205;-71
2022/08/25 09:49:15;;;;;;;26.77;18.83;;;22.90;99.90;;;;;;8347919;28;20190;-70
2022/08/25 09:53:21;;;;;;;26.50;20.40;;;22.90;99.90;;;;;;8377165;28;20189;-71
2022/08/25 09:57:29;;;;;;;23.47;17.87;;;22.70;99.90;;;;;;8346207;28;20190;-70
2022/08/25 10:01:31;;;;;;;18.27;16.23;;;22.50;99.90;;;;;;8344778;28;20178;-71
2022/08/25 10:05:36;;;;;;;19.40;17.03;;;22.60;99.90;;;;;;8344900;28;20479;-71
2022/08/25 10:09:42;;;;;;;18.53;13.90;;;22.80;99.90;;;;;;8346109;28;20212;-71
2022/08/25 10:13:46;;;;;;;21.67;16.60;;;23.00;99.90;;;;;;8348875;28;20205;-71
2022/08/25 10:17:49;;;;;;;25.10;17.53;;;23.30;99.90;;;;;;8345635;28;20189;-71
2022/08/25 10:22:04;;;;;;;18.53;14.17;;;23.50;99.90;;;;;;8345316;28;20291;-70
2022/08/25 10:26:21;;;;;;;20.80;15.60;;;23.80;99.90;;;;;;8344923;28;20216;-71
2022/08/25 10:30:30;;;;;;;24.10;14.15;;;24.10;99.90;;;;;;8346246;28;20174;-72
2022/08/25 10:34:34;;;;;;;18.63;12.55;;;24.30;99.90;;;;;;8336831;28;20610;-71
2022/08/25 10:38:37;;;;;;;21.35;15.77;;;24.30;56.60;;;;;;8342968;28;20182;-71
2022/08/25 10:42:42;;;;;;;19.45;15.27;;;24.30;1.00;;;;;;8343968;28;20185;-71
2022/08/25 10:47:04;;;;;;;20.02;14.02;;;24.20;19.30;;;;;;8345751;28;20209;-71
2022/08/25 10:51:31;;;;;;;14.82;13.27;;;24.30;1.00;;;;;;8354240;28;20184;-71
2022/08/25 10:55:58;;;;;;;19.02;14.43;;;24.50;1.00;;;;;;8356145;28;20186;-71
2022/08/25 11:00:01;;;;;;;20.42;14.27;;;24.60;99.90;;;;;;8352997;28;20232;-71
2022/08/25 11:04:38;;;;;;;18.15;13.43;;;24.60;99.90;;;;;;8347609;28;20210;-71
2022/08/25 11:08:53;;;;;;;19.10;13.18;;;24.80;99.90;;;;;;8347968;28;20260;-70
2022/08/25 11:12:58;;;;;;;11.93;9.13;;;25.10;1.00;;;;;;8354207;28;20209;-69
2022/08/25 11:17:09;;;;;;;19.92;12.52;;;25.30;1.00;;;;;;8346776;28;20438;-68
2022/08/25 11:21:18;;;;;;;16.73;11.45;;;25.60;99.90;;;;;;8347949;28;20182;-68
2022/08/25 11:25:41;;;;;;;16.52;12.18;;;25.80;99.90;;;;;;8348389;28;20281;-68
2022/08/25 11:29:52;;;;;;;14.20;8.60;;;25.80;99.90;;;;;;8349512;28;20170;-68
2022/08/25 11:33:54;;;;;;;13.95;9.10;;;26.20;99.90;;;;;;8375160;28;20217;-68
2022/08/25 11:38:23;;;;;;;17.05;10.45;;;26.80;99.90;;;;;;8353182;28;20190;-68
2022/08/25 11:43:02;;;;;;;12.15;8.93;;;27.00;1.00;;;;;;8347862;28;20182;-68
2022/08/25 11:47:22;;;;;;;11.70;8.20;;;27.30;1.00;;;;;;8350640;28;20230;-68
2022/08/25 11:51:46;;;;;;;12.25;9.48;;;27.50;1.00;;;;;;8349658;28;20189;-68
2022/08/25 11:55:53;;;;;;;18.48;12.27;;;27.30;1.00;;;;;;8351769;28;20182;-68
2022/08/25 11:59:56;;;;;;;15.05;9.43;;;26.60;98.30;;;;;;8345788;28;20260;-68
2022/08/25 12:04:14;;;;;;;12.77;8.25;;;26.60;99.90;;;;;;8359956;28;20441;-68
2022/08/25 12:08:50;;;;;;;17.40;9.65;;;27.30;39.00;;;;;;8379139;28;20201;-68
2022/08/25 12:13:04;;;;;;;18.05;9.15;;;27.80;1.00;;;;;;8337021;28;20202;-68
2022/08/25 12:17:26;;;;;;;13.13;7.95;;;28.20;1.00;;;;;;8359650;28;20271;-68
2022/08/25 12:21:31;;;;;;;17.17;9.95;;;28.50;1.00;;;;;;8345489;28;20240;-67
2022/08/25 12:25:41;;;;;;;13.95;7.78;;;28.50;99.90;;;;;;8340649;28;20213;-68
2022/08/25 12:29:47;;;;;;;13.77;8.75;;;28.50;99.90;;;;;;8375609;28;20293;-68
2022/08/25 12:34:21;;;;;;;14.20;8.35;;;28.20;1.00;;;;;;8344074;28;20182;-68
2022/08/25 12:38:46;;;;;;;10.48;7.20;;;28.20;99.90;;;;;;8339380;28;20213;-69
2022/08/25 12:42:59;;;;;;;12.43;7.18;;;28.10;1.00;;;;;;8344473;28;20183;-68
2022/08/25 12:47:13;;;;;;;12.75;7.22;;;28.10;1.00;;;;;;8343971;28;20213;-68
2022/08/25 12:51:18;;;;;;;13.95;8.27;;;28.00;1.00;;;;;;8345265;28;20182;-69
2022/08/25 12:55:21;;;;;;;19.02;8.45;;;28.00;1.00;;;;;;8378997;28;20188;-68
2022/08/25 12:59:33;;;;;;;15.23;7.40;;;27.80;1.00;;;;;;8345706;28;20397;-68
2022/08/25 13:03:56;;;;;;;19.17;8.20;;;27.30;1.00;;;;;;8344314;28;20186;-68
2022/08/25 13:08:26;;;;;;;19.50;7.85;;;27.00;66.30;;;;;;8358214;28;20196;-68
2022/08/25 13:12:39;;;;;;;18.38;8.48;;;27.10;1.00;;;;;;8332237;28;20458;-66
2022/08/25 13:16:52;;;;;;;21.15;9.45;;;27.00;1.00;;;;;;8338176;28;20224;-69
2022/08/25 13:21:18;;;;;;;22.88;9.50;;;27.00;6.40;;;;;;8348779;28;20224;-68
2022/08/25 13:25:26;;;;;;;21.20;8.55;;;27.10;99.90;;;;;;8345506;28;20201;-68
2022/08/25 13:29:31;;;;;;;18.13;8.45;;;27.30;66.00;;;;;;8346037;28;20189;-68
2022/08/25 13:33:33;;;;;;;17.83;8.30;;;27.40;1.00;;;;;;8342188;28;20186;-69
2022/08/25 13:37:34;;;;;;;13.73;7.90;;;27.50;14.50;;;;;;8358896;28;20267;-69
2022/08/25 13:41:34;;;;;;;12.77;8.00;;;27.60;1.00;;;;;;8343436;28;20181;-69
2022/08/25 13:45:45;;;;;;;18.60;8.68;;;27.60;1.00;;;;;;8344950;28;20206;-70
2022/08/25 13:49:50;;;;;;;14.75;8.48;;;27.60;1.00;;;;;;8374088;28;20179;-68
2022/08/25 13:54:04;;;;;;;10.82;8.10;;;27.60;1.00;;;;;;8357946;28;20232;-68
2022/08/25 13:58:13;;;;;;;24.67;9.27;;;27.60;1.00;;;;;;8333308;28;20583;-68
2022/08/25 14:02:39;;;;;;;21.95;9.25;;;27.70;1.00;;;;;;8335930;28;20182;-68
2022/08/25 14:06:46;;;;;;;14.05;7.20;;;27.70;1.00;;;;;;8341083;28;20201;-68
2022/08/25 14:10:47;;;;;;;21.30;8.02;;;27.70;1.00;;;;;;8342757;28;20616;-68
2022/08/25 14:15:19;;;;;;;18.30;8.85;;;27.70;1.00;;;;;;8345846;28;20182;-68
2022/08/25 14:19:22;;;;;;;17.10;7.93;;;27.70;1.00;;;;;;8331923;28;20214;-69
2022/08/25 14:23:26;;;;;;;17.27;7.38;;;27.80;1.00;;;;;;8342330;28;20182;-68
2022/08/25 14:27:27;;;;;;;24.60;8.32;;;27.80;1.00;;;;;;8382317;28;20213;-67
2022/08/25 14:31:32;;;;;;;22.48;8.40;;;27.80;99.90;;;;;;8353110;28;20175;-68
2022/08/25 14:35:33;;;;;;;23.20;8.55;;;27.70;1.00;;;;;;8347626;28;20227;-68
2022/08/25 14:39:34;;;;;;;18.38;7.88;;;27.70;1.00;;;;;;8349920;28;20207;-68
2022/08/25 14:43:36;;;;;;;18.20;7.45;;;27.80;1.00;;;;;;8349852;28;20208;-68
2022/08/25 14:47:36;;;;;;;18.23;7.13;;;27.90;1.00;;;;;;8350091;28;20224;-69
2022/08/25 14:51:41;;;;;;;16.30;7.13;;;27.90;99.90;;;;;;8350137;28;20182;-69
2022/08/25 14:55:41;;;;;;;18.05;7.45;;;27.90;99.90;;;;;;8350105;28;20177;-68
2022/08/25 14:59:42;;;;;;;22.65;7.47;;;27.90;99.90;;;;;;8365455;28;20251;-68
2022/08/25 15:03:47;;;;;;;16.67;6.47;;;27.80;99.90;;;;;;8347248;28;20194;-68
2022/08/25 15:12:07;;;;;;;23.30;6.93;;;27.80;99.90;;;;;;8349861;28;20221;-68
2022/08/25 15:16:08;;;;;;;18.83;7.50;;;27.80;99.90;;;;;;8344172;28;20205;-68
2022/08/25 15:20:09;;;;;;;21.65;7.00;;;27.80;1.00;;;;;;8348378;28;20197;-68
2022/08/25 15:24:11;;;;;;;12.85;6.68;;;27.80;99.90;;;;;;8350467;28;20212;-68
2022/08/25 15:28:12;;;;;;;21.83;7.03;;;27.80;99.90;;;;;;8383317;28;20265;-68
2022/08/25 15:32:16;;;;;;;19.27;7.10;;;27.90;99.90;;;;;;8348199;28;20189;-68
2022/08/25 15:36:24;;;;;;;18.10;7.20;;;27.90;99.90;;;;;;8347547;28;20182;-68
2022/08/25 15:40:27;;;;;;;18.90;7.15;;;27.80;99.90;;;;;;8346919;28;20184;-68
2022/08/25 15:44:28;;;;;;;21.65;6.95;;;27.80;99.90;;;;;;8348305;28;20294;-68
2022/08/25 15:48:28;;;;;;;20.05;7.65;;;27.70;99.90;;;;;;8349874;28;20174;-69
2022/08/25 15:52:29;;;;;;;15.10;7.18;;;27.70;99.90;;;;;;8346413;28;20183;-71
2022/08/25 15:56:30;;;;;;;21.88;8.07;;;27.70;1.00;;;;;;8346620;28;20185;-68
2022/08/25 16:00:31;;;;;;;23.48;8.15;;;27.60;1.00;;;;;;8344279;28;20237;-68
2022/08/25 16:04:32;;;;;;;20.60;6.55;;;27.60;1.00;;;;;;8345975;28;20205;-67
2022/08/25 16:08:33;;;;;;;15.18;7.00;;;27.60;1.00;;;;;;8346418;28;20192;-67
2022/08/25 16:12:34;;;;;;;18.70;6.93;;;27.60;1.00;;;;;;8344524;28;20284;-68
2022/08/25 16:16:35;;;;;;;15.85;6.65;;;27.60;1.00;;;;;;8351547;28;20243;-68
2022/08/25 16:20:36;;;;;;;18.83;7.07;;;27.60;1.00;;;;;;8348456;28;20248;-68
2022/08/25 16:24:43;;;;;;;18.05;7.03;;;27.70;1.00;;;;;;8343533;28;20511;-68
2022/08/25 16:28:44;;;;;;;15.35;7.43;;;27.60;1.00;;;;;;8344309;28;20170;-68
2022/08/25 16:32:46;;;;;;;19.63;6.95;;;27.60;1.00;;;;;;8347034;28;20185;-68
2022/08/25 16:36:47;;;;;;;19.90;7.38;;;27.60;1.00;;;;;;8347398;28;20196;-68
2022/08/25 16:40:47;;;;;;;20.65;7.57;;;27.40;1.00;;;;;;8348913;28;20190;-68
2022/08/25 16:44:48;;;;;;;19.48;7.05;;;27.30;1.00;;;;;;8352016;28;20206;-68
2022/08/25 16:48:49;;;;;;;22.75;8.25;;;27.30;1.00;;;;;;8342782;28;20181;-68
2022/08/25 16:57:12;;;;;;;19.95;7.97;;;27.10;46.00;;;;;;8343549;28;20196;-68
2022/08/25 17:01:20;;;;;;;21.33;8.15;;;27.00;99.90;;;;;;8346630;28;20182;-68
2022/08/25 17:05:21;;;;;;;12.73;7.43;;;26.90;99.90;;;;;;8345140;28;20201;-68
2022/08/25 17:09:21;;;;;;;18.33;8.15;;;26.80;99.90;;;;;;8344743;28;20235;-68
2022/08/25 17:13:22;;;;;;;21.08;9.10;;;26.70;99.90;;;;;;8335475;28;20204;-69
2022/08/25 17:17:23;;;;;;;23.63;9.35;;;26.50;1.00;;;;;;8344379;28;20346;-69
2022/08/25 17:21:27;;;;;;;16.75;7.60;;;26.00;99.90;;;;;;8346426;28;20221;-69
2022/08/25 17:25:28;;;;;;;12.02;7.40;;;25.60;1.00;;;;;;8348166;28;20215;-69
2022/08/25 17:29:29;;;;;;;13.40;7.30;;;25.40;1.00;;;;;;8347121;28;20178;-69
2022/08/25 17:33:30;;;;;;;12.05;7.18;;;25.30;99.90;;;;;;8346242;28;20620;-69
2022/08/25 17:37:31;;;;;;;10.27;7.05;;;25.10;1.00;;;;;;8345662;28;20220;-69
2022/08/25 17:41:32;;;;;;;10.52;7.63;;;24.90;99.90;;;;;;8338967;28;20205;-69
2022/08/25 17:45:33;;;;;;;12.43;6.97;;;24.70;1.00;;;;;;8343466;28;20268;-69
2022/08/25 17:49:34;;;;;;;11.15;6.90;;;24.50;1.00;;;;;;8344364;28;20178;-68
2022/08/25 17:53:35;;;;;;;7.75;6.95;;;24.20;99.90;;;;;;8344357;28;20182;-68
2022/08/25 17:57:36;;;;;;;11.50;7.70;;;24.00;1.00;;;;;;8346860;28;20304;-69
2022/08/25 18:01:37;;;;;;;10.00;7.57;;;23.80;99.90;;;;;;8345327;28;20300;-68
2022/08/25 18:05:38;;;;;;;11.50;8.13;;;23.70;1.00;;;;;;8345714;28;20240;-70
2022/08/25 18:09:39;;;;;;;14.83;8.77;;;23.50;1.00;;;;;;8343694;28;20189;-68
2022/08/25 18:13:41;;;;;;;12.70;8.17;;;23.40;99.90;;;;;;8342042;28;20241;-69
2022/08/25 18:17:42;;;;;;;10.47;7.93;;;23.20;99.90;;;;;;8344975;28;20198;-68
2022/08/25 18:21:43;;;;;;;13.63;9.20;;;23.00;1.00;;;;;;8341012;28;20178;-68
2022/08/25 18:25:46;;;;;;;11.27;8.53;;;22.90;1.00;;;;;;8341674;28;20205;-68
2022/08/25 18:29:47;;;;;;;10.07;8.33;;;22.70;9.60;;;;;;8344449;28;20178;-68
2022/08/25 18:33:48;;;;;;;10.50;8.07;;;22.50;99.90;;;;;;8344325;28;20182;-68
2022/08/25 18:42:08;;;;;;;10.10;8.30;;;22.20;99.90;;;;;;8345506;28;20830;-68
2022/08/25 18:46:10;;;;;;;11.77;8.47;;;22.10;99.90;;;;;;8345417;28;20277;-70
2022/08/25 18:50:11;;;;;;;14.83;9.50;;;22.00;99.90;;;;;;8342436;28;20178;-69
2022/08/25 18:54:13;;;;;;;9.87;8.30;;;21.90;99.90;;;;;;8348971;28;20393;-69
2022/08/25 18:58:15;;;;;;;11.60;8.57;;;21.80;99.90;;;;;;8343694;28;20182;-69
2022/08/25 19:02:15;;;;;;;9.80;8.47;;;21.70;99.90;;;;;;8340078;28;20182;-69
2022/08/25 19:06:17;;;;;;;11.03;8.20;;;21.60;99.90;;;;;;8342733;28;20374;-69
2022/08/25 19:10:19;;;;;;;10.20;8.23;;;21.50;99.90;;;;;;8345967;28;20194;-69
2022/08/25 19:14:20;;;;;;;9.70;8.63;;;21.30;99.90;;;;;;8347465;28;20194;-69
2022/08/25 19:18:21;;;;;;;9.57;7.80;;;21.30;99.90;;;;;;8345656;28;20240;-69
2022/08/25 19:22:22;;;;;;;10.53;8.47;;;21.20;99.90;;;;;;8351547;28;20209;-69
2022/08/25 19:26:23;;;;;;;9.17;8.17;;;21.10;99.90;;;;;;8344755;28;20214;-69
2022/08/25 19:30:26;;;;;;;12.27;9.07;;;21.00;99.90;;;;;;8344881;28;20178;-69
2022/08/25 19:34:30;;;;;;;11.17;8.67;;;21.00;99.90;;;;;;8345294;28;20186;-69
2022/08/25 19:38:31;;;;;;;11.37;9.50;;;20.90;99.90;;;;;;8349062;28;20174;-69
2022/08/25 19:42:32;;;;;;;10.47;9.10;;;20.90;99.90;;;;;;8347381;28;20186;-69
2022/08/25 19:46:36;;;;;;;11.07;9.07;;;20.80;99.90;;;;;;8348140;28;20205;-69
2022/08/25 19:50:37;;;;;;;12.37;9.10;;;20.70;99.90;;;;;;8339499;28;20196;-69
2022/08/25 19:54:44;;;;;;;9.33;8.33;;;20.60;99.90;;;;;;8346649;28;20185;-69
2022/08/25 19:58:45;;;;;;;9.50;7.63;;;20.60;99.90;;;;;;8346387;28;20178;-69
2022/08/25 20:02:46;;;;;;;11.60;8.37;;;20.50;99.90;;;;;;8346512;28;20265;-68
2022/08/25 20:06:47;;;;;;;13.07;8.37;;;20.40;99.90;;;;;;8347505;28;20208;-69
2022/08/25 20:10:48;;;;;;;11.40;7.37;;;20.40;99.90;;;;;;8346633;28;20236;-69
2022/08/25 20:14:50;;;;;;;10.13;8.07;;;20.30;99.90;;;;;;8344981;28;20189;-69
2022/08/25 20:18:51;;;;;;;9.53;7.90;;;20.30;99.90;;;;;;8344225;28;20288;-69
2022/08/25 20:22:53;;;;;;;10.30;7.97;;;20.20;99.90;;;;;;8344970;28;20244;-69
2022/08/25 20:26:55;;;;;;;9.70;8.17;;;20.10;99.90;;;;;;8344757;28;20209;-69
2022/08/25 20:30:56;;;;;;;10.17;7.83;;;20.10;99.90;;;;;;8344995;28;20185;-68
2022/08/25 20:34:57;;;;;;;11.43;8.10;;;20.10;99.90;;;;;;8345537;28;20239;-69
2022/08/25 20:38:57;;;;;;;12.60;9.00;;;20.00;99.90;;;;;;8349391;28;20181;-68
2022/08/25 20:43:02;;;;;;;9.10;8.13;;;20.00;99.90;;;;;;8347348;28;20285;-69
2022/08/25 20:47:09;;;;;;;10.43;8.07;;;19.90;99.90;;;;;;8356852;28;20578;-69
2022/08/25 20:51:11;;;;;;;8.73;7.73;;;19.90;99.90;;;;;;8348131;28;20240;-69
2022/08/25 20:55:15;;;;;;;8.80;7.90;;;19.90;99.90;;;;;;8379688;28;20280;-69
2022/08/25 20:59:16;;;;;;;8.80;8.00;;;19.90;99.90;;;;;;8336062;28;20196;-70
2022/08/25 21:03:17;;;;;;;10.67;8.00;;;20.00;99.90;;;;;;8335551;28;20214;-69
2022/08/25 21:07:20;;;;;;;9.17;7.53;;;20.00;99.90;;;;;;8344210;28;20276;-69